Old River-Winfree, Texas
Current Conditions -  °F | °C
As of 1:53 PM on Sunday 23 Nov 2014 (Local Time) from KIAH Reporting Station
Clear Clear  
Wind Chill: 78°   Ceiling: Unl
Heat Index: 79°   Visibility: 10mi
Dew Point: 54°   Wind: 12mph
Humidity: 43%   Direction: 210°SSW
Pressure: 29.54"   Gusts: 18mph
Location:  30.0179°N, 94.9156°W
Report Text: KIAH 231953Z 21010G16KT 10SM CLR 26/12 A2954 RMK AO2 SLP001 T02560122
Loading
Personal Weather Stations






























Interactive Weather Map New forecast layout! Learn more

10-Day Weather Forecast

Advertisements
Track Severe Weather on mobile